createdAt,value
2018-03-26T00:00:32.504Z,40.93
2018-03-26T00:03:02.205Z,43.93
2018-03-26T00:05:30.362Z,38.60
2018-03-26T00:08:04.623Z,40.70
2018-03-26T00:10:32.326Z,32.83
2018-03-26T00:13:15.007Z,35.20
2018-03-26T00:15:42.739Z,42.47
2018-03-26T00:18:11.857Z,43.57
2018-03-26T00:20:39.913Z,42.63
2018-03-26T00:26:25.396Z,34.00
2018-03-26T00:28:53.061Z,30.90
2018-03-26T00:31:30.887Z,31.43
2018-03-26T00:33:58.590Z,45.47
2018-03-26T00:36:26.294Z,39.27
2018-03-26T00:38:53.998Z,42.60
2018-03-26T00:41:30.393Z,42.40
2018-03-26T00:43:58.837Z,39.97
2018-03-26T00:46:33.963Z,47.00
2018-03-26T00:49:02.421Z,48.23
2018-03-26T00:51:31.167Z,50.70
2018-03-26T00:53:58.841Z,57.73
2018-03-26T00:56:43.666Z,58.83
2018-03-26T00:59:11.313Z,55.40
2018-03-26T01:01:57.368Z,58.83
2018-03-26T01:04:25.045Z,60.63
2018-03-26T01:06:58.538Z,63.50
2018-03-26T01:09:26.264Z,58.70
2018-03-26T01:11:53.996Z,60.17
2018-03-26T01:14:21.676Z,62.43
2018-03-26T01:16:53.214Z,67.67
2018-03-26T01:19:21.278Z,67.27
2018-03-26T01:21:49.926Z,72.27
2018-03-26T01:24:17.652Z,62.07
2018-03-26T01:26:46.069Z,76.50
2018-03-26T01:29:13.793Z,63.83
2018-03-26T01:31:42.286Z,64.90
2018-03-26T01:34:10.726Z,64.30
2018-03-26T01:36:44.315Z,63.87
2018-03-26T01:39:11.979Z,66.20
2018-03-26T01:44:33.484Z,64.13
2018-03-26T01:47:01.219Z,63.00
2018-03-26T01:49:36.984Z,63.83
2018-03-26T01:52:04.716Z,62.43
2018-03-26T01:54:49.089Z,62.07
2018-03-26T01:57:17.612Z,62.97
2018-03-26T01:59:49.279Z,71.57
2018-03-26T02:02:17.018Z,67.53
2018-03-26T02:04:58.565Z,62.67
2018-03-26T02:07:27.054Z,68.50
2018-03-26T02:10:01.118Z,70.00
2018-03-26T02:12:29.254Z,70.50
2018-03-26T02:15:09.474Z,77.17
2018-03-26T02:17:37.133Z,67.33
2018-03-26T02:20:06.277Z,80.63
2018-03-26T02:22:34.358Z,85.17
2018-03-26T02:25:08.973Z,75.33
2018-03-26T02:27:36.657Z,79.37
2018-03-26T02:30:16.635Z,77.30
2018-03-26T02:32:44.311Z,76.90
2018-03-26T02:43:56.580Z,87.00
2018-03-26T02:46:25.009Z,74.40
2018-03-26T02:48:59.236Z,83.10
2018-03-26T02:51:27.680Z,82.03
2018-03-26T02:54:15.744Z,84.23
2018-03-26T02:56:43.364Z,91.83
2018-03-26T02:59:11.803Z,85.93
2018-03-26T03:01:40.211Z,89.33
2018-03-26T03:04:10.660Z,87.87
2018-03-26T03:06:38.385Z,84.53
2018-03-26T03:09:09.750Z,86.37
2018-03-26T03:11:38.216Z,78.33
2018-03-26T03:14:14.267Z,86.83
2018-03-26T03:16:41.937Z,90.73
2018-03-26T03:19:26.380Z,92.60
2018-03-26T03:21:54.074Z,89.43
2018-03-26T03:24:29.822Z,89.40
2018-03-26T03:26:58.296Z,90.90
2018-03-26T03:29:30.408Z,89.83
2018-03-26T03:31:58.850Z,97.53
2018-03-26T03:34:52.560Z,94.23
2018-03-26T03:37:20.226Z,95.43
2018-03-26T03:40:07.348Z,86.40
2018-03-26T03:42:35.749Z,88.03
2018-03-26T03:45:06.171Z,97.70
2018-03-26T03:47:34.617Z,83.60
2018-03-26T03:50:06.702Z,92.60
2018-03-26T03:52:34.435Z,91.87
2018-03-26T03:55:08.959Z,87.60
2018-03-26T03:57:37.081Z,90.33
2018-03-26T04:00:05.807Z,331.60
2018-03-26T04:02:34.224Z,98.30
2018-03-26T04:05:19.127Z,100.87
2018-03-26T04:07:46.858Z,91.73
2018-03-26T04:10:22.347Z,90.93
2018-03-26T04:12:50.861Z,91.80
2018-03-26T04:15:26.388Z,91.90
2018-03-26T04:17:54.109Z,95.17
2018-03-26T04:20:29.318Z,96.30
2018-03-26T04:22:58.117Z,94.47
2018-03-26T04:25:36.788Z,84.67
2018-03-26T04:28:04.461Z,87.13
2018-03-26T04:30:37.405Z,89.37
2018-03-26T04:33:05.466Z,92.73
2018-03-26T04:35:48.682Z,93.33
2018-03-26T04:38:16.399Z,90.80
2018-03-26T04:40:44.134Z,97.07
2018-03-26T04:43:12.216Z,93.40
2018-03-26T04:45:42.358Z,98.60
2018-03-26T04:48:10.051Z,88.07
2018-03-26T04:50:55.480Z,97.30
2018-03-26T04:53:23.969Z,96.43
2018-03-26T04:56:09.467Z,96.63
2018-03-26T04:58:37.895Z,94.53
2018-03-26T05:01:14.699Z,99.23
2018-03-26T05:03:43.126Z,94.27
2018-03-26T05:06:23.402Z,97.57
2018-03-26T05:08:51.073Z,97.77
2018-03-26T05:11:19.624Z,91.83
2018-03-26T05:13:47.267Z,94.37
2018-03-26T05:16:15.416Z,99.37
2018-03-26T05:18:43.901Z,94.83
2018-03-26T05:21:13.340Z,95.80
2018-03-26T05:23:41.779Z,96.40
2018-03-26T05:26:17.007Z,97.57
2018-03-26T05:28:44.707Z,99.07
2018-03-26T05:31:19.445Z,100.47
2018-03-26T05:33:47.183Z,98.47
2018-03-26T05:36:29.883Z,108.63
2018-03-26T05:38:57.971Z,105.23
2018-03-26T05:41:25.692Z,97.07
2018-03-26T05:43:53.341Z,102.57
2018-03-26T05:46:33.777Z,98.57
2018-03-26T05:49:01.439Z,97.07
2018-03-26T05:51:41.469Z,132.30
2018-03-26T05:54:09.518Z,105.83
2018-03-26T05:56:38.218Z,134.60
2018-03-26T05:59:06.308Z,103.80
2018-03-26T06:01:39.230Z,102.20
2018-03-26T06:04:07.330Z,94.70
2018-03-26T06:06:35.777Z,92.80
2018-03-26T06:09:03.564Z,87.23
2018-03-26T06:11:39.248Z,89.70
2018-03-26T06:14:06.895Z,87.83
2018-03-26T06:16:49.536Z,86.90
2018-03-26T06:19:17.306Z,83.87
2018-03-26T06:21:51.526Z,72.53
2018-03-26T06:24:19.209Z,79.57
2018-03-26T06:26:53.378Z,82.60
2018-03-26T06:29:21.022Z,86.10
2018-03-26T06:31:56.655Z,94.87
2018-03-26T06:34:24.377Z,81.67
2018-03-26T06:39:55.620Z,93.07
2018-03-26T06:42:23.290Z,95.17
2018-03-26T06:44:51.357Z,99.97
2018-03-26T06:47:19.090Z,84.03
2018-03-26T06:49:47.573Z,83.90
2018-03-26T06:52:16.053Z,75.03
2018-03-26T06:54:44.474Z,86.27
2018-03-26T06:57:12.573Z,80.53
2018-03-26T06:59:40.215Z,80.43
2018-03-26T07:02:18.100Z,83.20
2018-03-26T07:04:45.758Z,87.03
2018-03-26T07:07:23.453Z,87.23
2018-03-26T07:09:51.164Z,69.00
2018-03-26T07:12:25.779Z,88.40
2018-03-26T07:14:53.522Z,80.40
2018-03-26T07:17:35.690Z,79.23
2018-03-26T07:20:04.196Z,78.10
2018-03-26T07:22:39.384Z,82.57
2018-03-26T07:25:07.840Z,79.97
2018-03-26T07:27:39.203Z,87.00
2018-03-26T07:30:07.640Z,81.20
2018-03-26T07:32:45.221Z,77.80
2018-03-26T07:35:12.910Z,75.33
2018-03-26T07:40:37.835Z,74.00
2018-03-26T07:43:05.508Z,80.53
2018-03-26T07:45:33.168Z,72.63
2018-03-26T07:48:00.867Z,74.50
2018-03-26T07:50:39.477Z,74.30
2018-03-26T07:53:08.790Z,77.40
2018-03-26T07:58:39.309Z,68.80
2018-03-26T08:01:07.024Z,65.17
2018-03-26T08:03:36.713Z,50.63
2018-03-26T08:06:05.204Z,54.97
2018-03-26T08:08:32.954Z,56.73
2018-03-26T08:11:01.414Z,48.57
2018-03-26T08:13:29.168Z,53.77
2018-03-26T08:15:56.833Z,57.73
2018-03-26T08:18:24.525Z,57.00
2018-03-26T08:20:53.009Z,54.57
2018-03-26T08:23:21.067Z,55.67
2018-03-26T08:25:49.552Z,51.80
2018-03-26T08:28:38.359Z,42.70
2018-03-26T08:31:06.058Z,47.97
2018-03-26T08:33:39.709Z,300.90
2018-03-26T08:36:07.365Z,94.13
2018-03-26T08:38:45.065Z,81.47
2018-03-26T08:41:12.738Z,98.67
2018-03-26T08:43:40.461Z,176.63
2018-03-26T08:46:08.946Z,138.97
2018-03-26T08:51:38.350Z,42.70
2018-03-26T08:54:06.186Z,34.27
2018-03-26T08:56:35.966Z,40.37
2018-03-26T08:59:03.734Z,41.87
2018-03-26T09:01:42.232Z,28.50
2018-03-26T09:04:10.260Z,34.10
2018-03-26T09:06:37.946Z,38.87
2018-03-26T09:09:06.404Z,47.73
2018-03-26T09:11:43.975Z,46.00
2018-03-26T09:14:12.043Z,50.23
2018-03-26T09:16:39.735Z,45.50
2018-03-26T09:19:07.452Z,48.80
2018-03-26T09:21:38.692Z,55.73
2018-03-26T09:24:06.414Z,50.83
2018-03-26T09:26:38.861Z,56.50
2018-03-26T09:29:06.576Z,54.60
2018-03-26T09:31:34.261Z,50.80
2018-03-26T09:34:01.979Z,48.30
2018-03-26T09:36:32.769Z,48.23
2018-03-26T09:39:00.451Z,44.43
2018-03-26T09:41:31.238Z,42.73
2018-03-26T09:43:58.946Z,37.10
2018-03-26T09:46:27.602Z,47.80
2018-03-26T09:48:55.293Z,47.10
2018-03-26T09:51:23.972Z,33.17
2018-03-26T09:53:52.402Z,37.83
2018-03-26T09:56:27.788Z,34.03
2018-03-26T09:58:55.845Z,32.13
2018-03-26T10:01:25.560Z,30.47
2018-03-26T10:03:53.250Z,40.47
2018-03-26T10:06:20.932Z,34.43
2018-03-26T10:08:48.579Z,44.30
2018-03-26T10:11:17.698Z,33.37
2018-03-26T10:13:46.133Z,35.33
2018-03-26T10:16:21.867Z,30.87
2018-03-26T10:18:49.949Z,35.27
2018-03-26T10:21:27.898Z,31.73
2018-03-26T10:23:56.425Z,28.93
2018-03-26T10:26:30.340Z,25.50
2018-03-26T10:28:58.058Z,26.00
2018-03-26T10:31:30.047Z,32.97
2018-03-26T10:33:57.725Z,32.17
2018-03-26T10:36:31.238Z,20.33
2018-03-26T10:38:58.885Z,23.83
2018-03-26T10:41:26.569Z,26.17
2018-03-26T10:43:54.239Z,24.13
2018-03-26T10:46:29.436Z,23.90
2018-03-26T10:48:57.925Z,19.73
2018-03-26T10:51:29.915Z,26.87
2018-03-26T10:53:57.647Z,26.13
2018-03-26T10:56:29.192Z,69.83
2018-03-26T10:58:56.881Z,18.37
2018-03-26T11:01:25.607Z,25.20
2018-03-26T11:03:53.303Z,72.33
2018-03-26T11:06:34.181Z,52.87
2018-03-26T11:09:01.900Z,37.40
2018-03-26T11:11:35.133Z,36.20
2018-03-26T11:14:03.631Z,73.17
2018-03-26T11:16:35.517Z,23.03
2018-03-26T11:19:03.195Z,19.40
2018-03-26T11:21:33.909Z,21.83
2018-03-26T11:24:01.582Z,18.47
2018-03-26T11:26:32.334Z,24.37
2018-03-26T11:29:00.814Z,21.50
2018-03-26T11:31:29.278Z,37.00
2018-03-26T11:33:56.973Z,187.53
2018-03-26T11:36:25.710Z,62.33
2018-03-26T11:38:53.755Z,61.13
2018-03-26T11:41:23.007Z,137.57
2018-03-26T11:43:51.453Z,20.00
2018-03-26T11:46:23.323Z,20.20
2018-03-26T11:48:51.748Z,17.37
2018-03-26T11:51:34.251Z,15.73
2018-03-26T11:54:03.112Z,14.90
2018-03-26T11:56:30.790Z,17.53
2018-03-26T11:58:58.863Z,17.77
2018-03-26T12:01:28.453Z,17.97
2018-03-26T12:03:56.117Z,18.27
2018-03-26T12:06:23.837Z,15.63
2018-03-26T12:08:51.566Z,26.97
2018-03-26T12:11:26.159Z,17.07
2018-03-26T12:13:53.814Z,21.63
2018-03-26T12:16:21.525Z,33.73
2018-03-26T12:18:49.210Z,18.27
2018-03-26T12:21:17.904Z,18.37
2018-03-26T12:24:01.141Z,19.43
2018-03-26T12:26:29.194Z,15.13
2018-03-26T12:29:11.342Z,15.13
2018-03-26T12:31:39.034Z,15.80
2018-03-26T12:34:24.576Z,18.43
2018-03-26T12:36:53.736Z,15.70
2018-03-26T12:39:34.104Z,20.20
2018-03-26T12:42:01.758Z,23.37
2018-03-26T12:44:46.714Z,16.73
2018-03-26T12:47:14.395Z,23.50
2018-03-26T12:49:42.036Z,16.27
2018-03-26T12:55:05.583Z,13.77
2018-03-26T13:00:28.051Z,15.53
2018-03-26T13:02:56.543Z,14.53
2018-03-26T13:05:34.467Z,14.13
2018-03-26T13:08:02.157Z,15.47
2018-03-26T13:10:29.802Z,17.97
2018-03-26T13:12:58.230Z,15.13
2018-03-26T13:15:27.720Z,15.47
2018-03-26T13:17:55.927Z,17.40
2018-03-26T13:20:24.588Z,19.80
2018-03-26T13:22:52.289Z,20.10
2018-03-26T13:25:23.865Z,18.10
2018-03-26T13:27:51.938Z,29.20
2018-03-26T13:30:29.886Z,29.43
2018-03-26T13:32:58.335Z,15.73
2018-03-26T13:35:34.271Z,15.97
2018-03-26T13:38:01.951Z,22.60
2018-03-26T13:40:29.649Z,20.40
2018-03-26T13:42:57.339Z,17.03
2018-03-26T13:45:34.918Z,16.77
2018-03-26T13:48:02.661Z,26.90
2018-03-26T13:50:30.339Z,20.97
2018-03-26T13:52:58.091Z,21.67
2018-03-26T13:55:29.743Z,26.40
2018-03-26T13:57:58.188Z,24.60
2018-03-26T14:00:34.898Z,24.60
2018-03-26T14:03:02.989Z,25.53
2018-03-26T14:05:41.626Z,15.07
2018-03-26T14:11:29.194Z,21.57
2018-03-26T14:14:10.604Z,19.93
2018-03-26T14:16:53.699Z,22.43
2018-03-26T14:19:21.440Z,19.00
2018-03-26T14:21:52.786Z,16.30
2018-03-26T14:24:20.504Z,21.07
2018-03-26T14:26:48.178Z,19.80
2018-03-26T14:29:16.706Z,18.63
2018-03-26T14:31:45.151Z,21.03
2018-03-26T14:34:13.598Z,23.50
2018-03-26T14:36:43.302Z,19.67
2018-03-26T14:39:11.335Z,18.83
2018-03-26T14:41:39.036Z,24.57
2018-03-26T14:44:06.728Z,21.90
2018-03-26T14:46:35.224Z,17.37
2018-03-26T14:49:02.889Z,18.57
2018-03-26T14:51:45.014Z,19.93
2018-03-26T14:54:12.691Z,24.17
2018-03-26T14:56:48.014Z,25.20
2018-03-26T14:59:16.855Z,22.20
2018-03-26T15:01:50.231Z,22.40
2018-03-26T15:04:19.091Z,23.87
2018-03-26T15:06:47.807Z,38.03
2018-03-26T15:09:15.502Z,69.93
2018-03-26T15:11:59.572Z,28.47
2018-03-26T15:14:27.639Z,20.07
2018-03-26T15:17:14.528Z,24.87
2018-03-26T15:19:42.610Z,30.17
2018-03-26T15:22:11.017Z,39.80
2018-03-26T15:24:39.520Z,43.73
2018-03-26T15:27:17.718Z,35.67
2018-03-26T15:29:45.419Z,24.33
2018-03-26T15:32:21.094Z,20.60
2018-03-26T15:34:48.803Z,18.37
2018-03-26T15:37:24.465Z,22.13
2018-03-26T15:39:52.196Z,19.43
2018-03-26T15:42:30.762Z,15.63
2018-03-26T15:44:58.500Z,19.00
2018-03-26T15:47:27.012Z,24.33
2018-03-26T15:49:55.467Z,17.00
2018-03-26T15:52:28.382Z,15.77
2018-03-26T15:54:56.453Z,15.63
2018-03-26T16:00:25.092Z,15.63
2018-03-26T16:02:58.463Z,13.80
2018-03-26T16:05:26.916Z,15.13
2018-03-26T16:08:05.617Z,16.97
2018-03-26T16:10:33.686Z,18.73
2018-03-26T16:13:01.866Z,19.60
2018-03-26T16:15:29.556Z,17.97
2018-03-26T16:18:04.460Z,17.70
2018-03-26T16:20:34.940Z,19.07
2018-03-26T16:23:11.671Z,18.90
2018-03-26T16:25:40.185Z,17.97
2018-03-26T16:28:11.211Z,21.00
2018-03-26T16:30:39.335Z,16.23
2018-03-26T16:33:11.984Z,14.37
2018-03-26T16:35:39.624Z,15.10
2018-03-26T16:38:09.198Z,16.87
2018-03-26T16:40:36.897Z,15.67
2018-03-26T16:43:05.036Z,14.90
2018-03-26T16:45:33.281Z,16.50
2018-03-26T16:48:01.051Z,14.97
2018-03-26T16:50:28.755Z,15.77
2018-03-26T16:53:05.324Z,14.90
2018-03-26T16:55:33.376Z,14.00
2018-03-26T16:58:01.210Z,13.77
2018-03-26T17:15:23.230Z,10.93
2018-03-26T17:20:18.213Z,12.10
2018-03-26T17:22:56.224Z,12.60
2018-03-26T17:25:24.637Z,12.47
2018-03-26T17:27:57.961Z,15.33
2018-03-26T17:30:25.619Z,11.63
2018-03-26T17:37:52.329Z,14.50
2018-03-26T17:40:20.775Z,14.17
2018-03-26T17:42:49.417Z,25.27
2018-03-26T17:45:17.870Z,34.80
2018-03-26T17:47:46.798Z,46.83
2018-03-26T17:50:14.497Z,48.77
2018-03-26T17:52:43.727Z,36.07
2018-03-26T17:55:12.206Z,19.80
2018-03-26T17:57:40.448Z,13.47
2018-03-26T18:00:08.581Z,14.20
2018-03-26T18:02:37.258Z,13.67
2018-03-26T18:05:05.292Z,15.83
2018-03-26T18:07:33.507Z,13.07
2018-03-26T18:10:02.012Z,16.87
2018-03-26T18:12:38.710Z,15.63
2018-03-26T18:15:06.750Z,15.80
2018-03-26T18:17:41.819Z,16.13
2018-03-26T18:20:09.885Z,22.07
2018-03-26T18:22:38.582Z,18.50
2018-03-26T18:25:06.654Z,21.00
2018-03-26T18:27:35.356Z,16.13
2018-03-26T18:30:03.855Z,15.53
2018-03-26T18:32:33.923Z,20.23
2018-03-26T18:35:01.637Z,14.37
2018-03-26T18:37:49.347Z,13.07
2018-03-26T18:40:17.819Z,13.83
2018-03-26T18:42:56.676Z,19.43
2018-03-26T18:45:24.739Z,20.92
2018-03-26T18:47:52.504Z,22.25
2018-03-26T18:50:20.926Z,21.75
2018-03-26T18:52:55.181Z,21.20
2018-03-26T18:55:23.606Z,24.70
2018-03-26T18:57:55.750Z,22.15
2018-03-26T19:00:23.407Z,18.80
2018-03-26T19:02:51.086Z,18.48
2018-03-26T19:05:18.818Z,24.15
2018-03-26T19:07:49.323Z,22.62
2018-03-26T19:10:18.500Z,19.08
2018-03-26T19:12:52.563Z,21.23
2018-03-26T19:15:21.038Z,22.10
2018-03-26T19:17:49.493Z,23.42
2018-03-26T19:20:17.244Z,21.52
2018-03-26T19:22:56.131Z,24.00
2018-03-26T19:25:23.772Z,25.15
2018-03-26T19:28:06.149Z,20.80
2018-03-26T19:30:33.894Z,22.62
2018-03-26T19:33:09.688Z,22.05
2018-03-26T19:35:37.765Z,20.50
2018-03-26T19:38:20.092Z,19.62
2018-03-26T19:40:47.779Z,17.42
2018-03-26T19:43:16.218Z,21.17
2018-03-26T19:45:44.696Z,12.70
2018-03-26T19:48:13.142Z,15.45
2018-03-26T19:50:42.065Z,21.12
2018-03-26T19:53:12.025Z,23.23
2018-03-26T19:55:40.099Z,21.30
2018-03-26T19:58:08.221Z,28.08
2018-03-26T20:00:37.461Z,22.95
2018-03-26T20:03:06.184Z,21.33
2018-03-26T20:05:34.537Z,27.77
2018-03-26T20:08:06.716Z,22.85
2018-03-26T20:10:35.225Z,23.05
2018-03-26T20:13:03.674Z,23.75
2018-03-26T20:15:32.202Z,28.55
2018-03-26T20:17:59.930Z,22.15
2018-03-26T20:20:27.961Z,21.12
2018-03-26T20:22:58.798Z,19.40
2018-03-26T20:25:27.222Z,21.02
2018-03-26T20:27:54.955Z,14.43
2018-03-26T20:30:22.598Z,14.32
2018-03-26T20:32:55.371Z,20.65
2018-03-26T20:35:23.107Z,21.35
2018-03-26T20:37:56.733Z,23.75
2018-03-26T20:40:24.436Z,20.12
2018-03-26T20:42:53.336Z,17.37
2018-03-26T20:45:20.977Z,18.45
2018-03-26T20:47:52.478Z,13.27
2018-03-26T20:50:20.943Z,18.48
2018-03-26T20:52:48.631Z,17.00
2018-03-26T20:55:16.323Z,16.45
2018-03-26T20:57:44.798Z,17.70
2018-03-26T21:00:12.810Z,21.00
2018-03-26T21:02:41.479Z,16.15
2018-03-26T21:05:09.168Z,18.60
2018-03-26T21:07:53.592Z,25.42
2018-03-26T21:10:22.417Z,27.13
2018-03-26T21:12:51.914Z,29.98
2018-03-26T21:15:21.064Z,26.10
2018-03-26T21:17:58.567Z,23.00
2018-03-26T21:20:26.616Z,20.73
2018-03-26T21:22:59.454Z,26.12
2018-03-26T21:25:27.170Z,23.42
2018-03-26T21:27:55.860Z,19.75
2018-03-26T21:30:23.561Z,18.55
2018-03-26T21:33:00.825Z,17.10
2018-03-26T21:35:28.561Z,18.92
2018-03-26T21:37:57.251Z,19.80
2018-03-26T21:40:25.361Z,18.27
2018-03-26T21:43:03.419Z,22.42
2018-03-26T21:45:32.237Z,24.25
2018-03-26T21:54:00.103Z,21.62
2018-03-26T21:56:28.919Z,21.33
2018-03-26T21:59:15.679Z,20.65
2018-03-26T22:01:44.166Z,20.65
2018-03-26T22:07:16.619Z,23.35
2018-03-26T22:09:45.088Z,19.00
2018-03-26T22:12:16.496Z,24.95
2018-03-26T22:14:45.580Z,22.27
2018-03-26T22:17:27.181Z,21.20
2018-03-26T22:19:55.206Z,25.20
2018-03-26T22:22:36.509Z,24.37
2018-03-26T22:25:04.663Z,27.58
2018-03-26T22:27:41.020Z,18.25
2018-03-26T22:30:08.777Z,20.10
2018-03-26T22:32:45.739Z,20.10
2018-03-26T22:35:13.829Z,27.73
2018-03-26T22:37:42.612Z,27.17
2018-03-26T22:40:10.281Z,23.25
2018-03-26T22:42:51.938Z,25.70
2018-03-26T22:45:19.582Z,22.00
2018-03-26T22:47:48.003Z,23.20
2018-03-26T22:50:16.489Z,30.45
2018-03-26T22:52:51.246Z,24.35
2018-03-26T22:55:19.319Z,23.75
2018-03-26T22:57:57.249Z,25.20
2018-03-26T23:00:25.747Z,25.67
2018-03-26T23:03:00.451Z,27.48
2018-03-26T23:05:28.960Z,21.35
2018-03-26T23:07:56.643Z,24.40
2018-03-26T23:10:24.765Z,27.48
2018-03-26T23:12:56.450Z,22.35
2018-03-26T23:15:24.913Z,15.73
2018-03-26T23:17:52.635Z,18.90
2018-03-26T23:20:20.364Z,24.98
2018-03-26T23:23:07.386Z,22.25
2018-03-26T23:25:35.840Z,22.75
2018-03-26T23:28:05.570Z,25.98
2018-03-26T23:30:33.637Z,25.95
2018-03-26T23:33:02.410Z,22.70
2018-03-26T23:35:30.124Z,25.30
2018-03-26T23:38:03.586Z,24.33
2018-03-26T23:40:32.048Z,23.83
2018-03-26T23:43:00.210Z,24.40
2018-03-26T23:45:28.655Z,24.55
2018-03-26T23:48:00.855Z,27.30
2018-03-26T23:50:29.339Z,26.45
2018-03-26T23:53:15.130Z,23.10
2018-03-26T23:55:43.222Z,29.25
